Time;durP1;ratioP1;P1;durP2;ratioP2;P2;SDS_P1;SDS_P2;PMS_P1;PMS_P2;Temp;Humidity;BMP_temperature;BMP_pressure;BME280_temperature;BME280_humidity;BME280_pressure;Samples;Min_cycle;Max_cycle;Signal;HPM_P1;HPM_P2
2021/05/06 00:32:02;;;;;;;1.35;1.20;;;;;;;6.83;83.15;92062.41;1842444;77;21230;-80
2021/05/06 00:34:14;;;;;;;2.40;1.70;;;;;;;6.78;83.44;92069.62;1833307;76;21171;-80
2021/05/06 00:36:42;;;;;;;1.47;1.20;;;;;;;6.72;83.83;92080.67;1838093;78;21206;-82
2021/05/06 00:39:15;;;;;;;1.70;1.60;;;;;;;6.71;84.05;92065.64;1837688;77;21229;-80
2021/05/06 00:44:34;;;;;;;2.33;1.82;;;;;;;6.65;84.09;92086.16;1839616;77;21168;-84
2021/05/06 00:53:55;;;;;;;2.95;1.67;;;;;;;6.66;84.12;92077.66;1829125;78;21758;-81
2021/05/06 00:54:45;;;;;;;6.95;1.92;;;;;;;6.59;84.32;92101.28;1758494;77;22123;-80
2021/05/06 01:05:19;;;;;;;1.62;1.52;;;;;;;6.45;85.04;92114.33;1782491;78;21201;-86
2021/05/06 01:10:23;;;;;;;2.92;1.52;;;;;;;6.45;85.09;92114.33;1766020;81;21545;-82
2021/05/06 01:12:43;;;;;;;2.55;1.32;;;;;;;6.47;85.09;92126.27;1796126;79;21200;-82
2021/05/06 01:15:11;;;;;;;1.20;1.10;;;;;;;6.47;85.05;92126.27;1828829;77;21595;-80
2021/05/06 01:17:41;;;;;;;1.17;1.07;;;;;;;6.47;85.12;92127.63;1842605;77;21159;-84
2021/05/06 01:20:10;;;;;;;1.27;1.20;;;;;;;6.49;85.17;92129.91;1845111;77;21374;-80
2021/05/06 01:22:38;;;;;;;1.42;1.20;;;;;;;6.50;85.15;92134.14;1839290;77;21136;-82
2021/05/06 01:25:07;;;;;;;2.87;1.00;;;;;;;6.52;85.00;92142.63;1845645;77;21155;-79
2021/05/06 01:27:42;;;;;;;1.20;0.85;;;;;;;6.50;85.00;92153.80;1787820;77;21133;-76
2021/05/06 01:30:26;;;;;;;1.62;1.10;;;;;;;6.49;84.75;92154.98;1832118;77;21140;-78
2021/05/06 01:32:58;;;;;;;3.83;1.30;;;;;;;6.41;84.86;92152.16;1810094;77;21773;-81
2021/05/06 01:35:39;;;;;;;1.52;1.00;;;;;;;6.35;84.92;92155.09;1798682;78;21171;-82
2021/05/06 01:38:38;;;;;;;1.00;0.80;;;;;;;6.31;84.84;92147.03;1839795;77;21194;-83
2021/05/06 01:59:50;;;;;;;0.50;0.50;;;;;;;5.78;85.43;92173.78;1844907;77;21159;-81
2021/05/06 02:02:15;;;;;;;1.02;0.70;;;;;;;5.71;85.52;92171.13;1840159;77;21195;-80
2021/05/06 02:04:43;;;;;;;1.32;0.90;;;;;;;5.65;85.81;92180.05;1844994;77;21185;-82
2021/05/06 02:07:11;;;;;;;1.32;0.60;;;;;;;5.59;86.05;92182.38;1774714;80;21216;-77
2021/05/06 02:09:40;;;;;;;1.00;0.90;;;;;;;5.53;86.22;92182.03;1832614;77;21521;-79
2021/05/06 02:12:10;;;;;;;0.60;0.60;;;;;;;5.49;86.34;92183.98;1812919;77;21803;-80
2021/05/06 02:14:39;;;;;;;1.25;0.78;;;;;;;5.48;86.42;92183.01;1839928;77;21235;-83
2021/05/06 02:17:08;;;;;;;0.90;0.90;;;;;;;5.44;86.36;92192.46;1844930;77;21733;-78
2021/05/06 02:19:39;;;;;;;2.27;0.80;;;;;;;5.41;86.73;92198.63;1839337;77;21056;-78
2021/05/06 02:22:08;;;;;;;0.80;0.80;;;;;;;5.39;86.89;92198.27;1846762;77;21610;-77
2021/05/06 02:24:36;;;;;;;1.15;0.70;;;;;;;5.41;87.19;92199.98;1843672;77;21308;-76
2021/05/06 02:27:05;;;;;;;1.72;0.68;;;;;;;5.47;87.49;92203.05;1846689;77;21159;-80
2021/05/06 02:29:34;;;;;;;0.98;0.65;;;;;;;5.51;87.27;92213.23;1845548;77;21183;-82
2021/05/06 02:32:04;;;;;;;0.95;0.80;;;;;;;5.52;87.08;92217.46;1839737;77;21634;-79
2021/05/06 02:34:32;;;;;;;0.50;0.50;;;;;;;5.52;87.07;92216.88;1847017;77;21167;-82
2021/05/06 02:37:01;;;;;;;0.82;0.82;;;;;;;5.54;87.06;92230.75;1785218;77;21910;-81
2021/05/06 02:39:28;;;;;;;1.55;0.60;;;;;;;5.53;87.03;92242.70;1817154;78;21217;-80
2021/05/06 02:41:55;;;;;;;0.72;0.60;;;;;;;5.53;86.72;92251.38;1786198;79;21204;-82
2021/05/06 02:44:23;;;;;;;0.72;0.45;;;;;;;5.49;86.67;92258.13;1787789;78;21244;-78
2021/05/06 02:46:51;;;;;;;0.55;0.30;;;;;;;5.49;86.26;92275.66;1838215;78;21156;-82
2021/05/06 02:49:20;;;;;;;1.87;1.62;;;;;;;5.47;86.14;92273.91;1846882;77;21364;-82
2021/05/06 02:51:52;;;;;;;1.40;0.60;;;;;;;5.46;85.90;92271.04;1842736;77;21123;-76
2021/05/06 02:54:20;;;;;;;0.60;0.55;;;;;;;5.45;85.88;92257.34;1848037;77;21171;-78
2021/05/06 02:57:03;;;;;;;2.98;0.82;;;;;;;5.44;85.82;92265.25;1847365;76;21973;-78
2021/05/06 03:02:41;;;;;;;1.05;0.70;;;;;;;5.44;85.79;92280.66;1838933;77;21175;-82
2021/05/06 03:04:29;;;;;;;1.47;1.00;;;;;;;5.38;85.95;92264.14;1776356;79;21137;-79
2021/05/06 03:07:04;;;;;;;1.27;1.00;;;;;;;5.38;85.73;92287.61;1830583;78;21477;-84
2021/05/06 03:12:28;;;;;;;0.80;0.75;;;;;;;5.40;86.51;92309.56;1813323;77;21207;-85
2021/05/06 03:22:59;;;;;;;2.37;0.62;;;;;;;5.59;86.13;92340.13;1851201;76;21028;-78
2021/05/06 03:25:29;;;;;;;0.65;0.65;;;;;;;5.61;85.97;92351.31;1840026;77;21179;-77
2021/05/06 03:28:35;;;;;;;0.60;0.60;;;;;;;5.61;86.07;92354.02;1845301;77;21347;-84
2021/05/06 03:30:57;;;;;;;0.60;0.60;;;;;;;5.62;86.28;92347.45;1836140;77;21179;-80
2021/05/06 03:41:36;;;;;;;0.98;0.88;;;;;;;5.63;86.13;92365.75;1826113;77;21220;-79
2021/05/06 03:44:02;;;;;;;0.80;0.68;;;;;;;5.55;85.97;92372.50;1846143;77;21737;-78
2021/05/06 03:49:28;;;;;;;12.18;1.85;;;;;;;5.65;85.91;92383.09;1846750;77;21088;-77
2021/05/06 04:14:24;;;;;;;0.78;0.72;;;;;;;5.66;85.61;92433.75;1824252;77;21148;-85
2021/05/06 04:18:58;;;;;;;2.45;0.90;;;;;;;5.56;86.15;92432.59;1850342;77;21127;-80
2021/05/06 04:21:32;;;;;;;1.05;0.90;;;;;;;5.56;86.78;92445.49;1849157;76;21799;-79
2021/05/06 04:26:59;;;;;;;0.95;0.55;;;;;;;5.62;86.69;92457.26;1786614;77;21651;-79
2021/05/06 04:29:54;;;;;;;0.50;0.50;;;;;;;5.56;86.81;92468.41;1840681;77;21167;-79
2021/05/06 04:37:26;;;;;;;1.60;0.68;;;;;;;5.42;85.57;92481.92;1845407;77;21989;-81
2021/05/06 04:39:57;;;;;;;1.72;1.25;;;;;;;5.32;85.85;92494.81;1780823;78;21216;-79
2021/05/06 04:55:47;;;;;;;0.98;0.40;;;;;;;5.13;85.69;92511.34;1772501;79;21658;-84
2021/05/06 05:06:23;;;;;;;1.42;0.80;;;;;;;5.03;85.33;92530.37;1794551;79;21184;-81
2021/05/06 05:12:13;;;;;;;0.60;0.60;;;;;;;5.03;86.56;92529.78;1832876;76;21489;-83
2021/05/06 05:20:14;;;;;;;1.40;0.70;;;;;;;4.98;86.31;92532.86;1862884;75;21147;-85
2021/05/06 05:25:40;;;;;;;1.15;0.88;;;;;;;4.93;86.27;92535.94;1796207;78;21144;-79
2021/05/06 05:28:08;;;;;;;1.02;0.62;;;;;;;4.95;86.13;92544.40;1841633;77;21446;-82
2021/05/06 05:30:39;;;;;;;0.93;0.60;;;;;;;5.05;86.34;92540.97;1842846;77;22004;-90
2021/05/06 05:33:21;;;;;;;2.77;0.90;;;;;;;5.15;85.72;92534.62;1838842;77;21168;-84
2021/05/06 05:56:53;;;;;;;1.98;0.93;;;;;;;5.13;84.05;92543.69;1836760;78;21737;-83
2021/05/06 05:59:21;;;;;;;1.15;0.80;;;;;;;5.11;83.64;92552.13;1844819;77;21247;-82
2021/05/06 06:01:50;;;;;;;1.30;0.70;;;;;;;5.23;84.85;92549.10;1813025;77;21195;-84
2021/05/06 06:04:17;;;;;;;1.98;1.00;;;;;;;5.58;85.47;92557.81;1841081;77;21179;-84
2021/05/06 06:06:45;;;;;;;4.78;0.88;;;;;;;6.01;81.77;92557.83;1842273;77;21175;-79
2021/05/06 06:09:12;;;;;;;1.25;0.60;;;;;;;6.44;81.41;92564.53;1839995;77;21183;-78
2021/05/06 06:11:40;;;;;;;3.58;1.00;;;;;;;6.57;79.48;92562.95;1848699;77;21161;-77
2021/05/06 06:14:08;;;;;;;2.47;0.78;;;;;;;6.53;79.55;92555.44;1841014;77;21191;-80
2021/05/06 06:16:39;;;;;;;1.37;1.27;;;;;;;6.56;79.09;92560.64;1842448;77;21174;-83
2021/05/06 06:19:06;;;;;;;1.27;1.17;;;;;;;6.57;78.51;92571.63;1841742;77;21634;-82
2021/05/06 06:21:42;;;;;;;1.65;1.00;;;;;;;6.64;78.16;92569.50;1839459;77;21214;-83
2021/05/06 06:24:09;;;;;;;1.67;0.90;;;;;;;7.02;75.22;92575.34;1844924;77;21187;-80
2021/05/06 06:26:37;;;;;;;1.45;1.10;;;;;;;7.67;74.47;92570.94;1838263;77;21104;-82
2021/05/06 06:29:10;;;;;;;1.92;1.65;;;;;;;8.56;73.95;92568.88;1843700;77;21167;-82
2021/05/06 06:34:06;;;;;;;3.35;1.42;;;;;;;10.34;64.17;92560.36;1840438;77;21179;-81
2021/05/06 06:36:34;;;;;;;1.35;0.98;;;;;;;10.93;61.33;92551.50;1835438;77;21252;-79
2021/05/06 06:39:04;;;;;;;3.83;1.90;;;;;;;11.35;58.95;92557.88;1779057;80;21138;-78
2021/05/06 06:41:32;;;;;;;1.95;1.55;;;;;;;11.66;56.59;92560.53;1838772;77;21203;-85
2021/05/06 06:44:01;;;;;;;2.02;1.45;;;;;;;11.86;55.33;92553.70;1843119;77;21190;-85
2021/05/06 06:46:30;;;;;;;1.35;1.22;;;;;;;11.75;54.06;92562.67;1809612;77;21595;-81
2021/05/06 06:49:01;;;;;;;2.58;1.85;;;;;;;11.70;54.70;92561.03;1792561;78;21379;-81
2021/05/06 06:51:28;;;;;;;2.55;1.70;;;;;;;11.80;55.71;92564.88;1837700;77;21393;-82
2021/05/06 06:53:56;;;;;;;2.33;1.57;;;;;;;11.99;54.25;92569.37;1845498;77;21179;-84
2021/05/06 06:56:23;;;;;;;1.52;1.02;;;;;;;11.91;53.29;92572.84;1783434;77;21221;-84
2021/05/06 06:58:52;;;;;;;3.75;1.17;;;;;;;11.76;51.04;92571.61;1814210;78;21184;-83
2021/05/06 07:01:20;;;;;;;2.33;1.20;;;;;;;11.70;52.34;92576.01;1840378;77;21494;-81
2021/05/06 07:03:48;;;;;;;0.95;0.82;;;;;;;11.60;50.12;92570.98;1844211;77;21164;-82
2021/05/06 07:08:47;;;;;;;1.52;1.00;;;;;;;11.70;48.10;92568.63;1847592;77;21230;-78
2021/05/06 07:11:15;;;;;;;1.32;1.22;;;;;;;11.69;48.93;92580.69;1839111;77;21168;-79
2021/05/06 07:13:44;;;;;;;0.70;0.70;;;;;;;11.57;47.82;92582.11;1841286;77;21198;-85
2021/05/06 07:16:13;;;;;;;0.95;0.70;;;;;;;11.65;51.17;92586.81;1842548;77;21237;-85
2021/05/06 07:18:43;;;;;;;2.17;1.50;;;;;;;11.99;50.37;92589.20;1837510;77;22176;-83
2021/05/06 07:21:11;;;;;;;0.75;0.72;;;;;;;12.15;48.34;92601.50;1844692;77;21571;-79
2021/05/06 07:23:40;;;;;;;1.90;1.07;;;;;;;12.12;48.93;92606.44;1836172;77;21519;-82
2021/05/06 07:26:09;;;;;;;1.42;0.85;;;;;;;12.10;48.50;92607.44;1842051;77;21187;-84
2021/05/06 07:28:41;;;;;;;1.50;0.78;;;;;;;11.95;47.91;92597.29;1812887;77;21168;-79
2021/05/06 07:31:17;;;;;;;0.98;0.85;;;;;;;11.80;45.54;92603.61;1839732;77;21202;-82
2021/05/06 07:33:53;;;;;;;1.00;0.98;;;;;;;11.84;45.71;92611.14;1843222;77;21992;-78
2021/05/06 07:39:12;;;;;;;1.20;1.02;;;;;;;12.00;43.66;92594.05;1746355;81;21440;-82
2021/05/06 07:41:50;;;;;;;0.98;0.82;;;;;;;11.98;47.53;92595.85;1830328;78;21211;-82
2021/05/06 07:44:32;;;;;;;1.10;1.00;;;;;;;12.12;47.09;92601.58;1844268;77;21139;-85
2021/05/06 07:47:11;;;;;;;0.80;0.80;;;;;;;12.25;49.08;92595.62;1815595;77;22461;-80
2021/05/06 07:49:48;;;;;;;2.05;0.90;;;;;;;12.26;43.19;92602.63;1839766;77;22084;-82
2021/05/06 07:52:21;;;;;;;1.72;1.05;;;;;;;11.92;42.87;92594.80;1842890;77;21184;-83
2021/05/06 07:54:58;;;;;;;0.90;0.90;;;;;;;11.75;44.99;92613.66;1837483;77;21223;-79
2021/05/06 07:57:26;;;;;;;1.32;0.98;;;;;;;11.67;44.76;92608.95;1844668;77;21474;-79
2021/05/06 07:59:54;;;;;;;0.93;0.85;;;;;;;11.52;44.32;92611.20;1836757;77;21353;-79
2021/05/06 08:02:24;;;;;;;1.80;1.00;;;;;;;11.26;44.18;92608.03;1847841;76;21095;-82
2021/05/06 08:04:51;;;;;;;1.32;1.00;;;;;;;11.19;47.46;92607.57;1814473;77;21689;-77
2021/05/06 08:07:18;;;;;;;1.20;1.00;;;;;;;11.34;45.92;92621.08;1789414;78;21117;-79
2021/05/06 08:09:48;;;;;;;2.72;1.67;;;;;;;11.47;46.42;92617.72;1836682;77;21211;-85
2021/05/06 08:12:16;;;;;;;1.72;0.90;;;;;;;11.66;47.33;92623.77;1845008;77;21355;-81
2021/05/06 08:14:44;;;;;;;1.72;1.00;;;;;;;12.00;45.70;92625.38;1838021;77;21184;-82
2021/05/06 08:17:12;;;;;;;0.98;0.90;;;;;;;12.46;46.71;92635.25;1841579;77;21206;-85
2021/05/06 08:19:41;;;;;;;2.50;0.95;;;;;;;12.94;44.35;92628.81;1842240;77;21199;-82
2021/05/06 08:22:09;;;;;;;2.62;0.80;;;;;;;13.30;41.35;92630.82;1838119;77;21278;-84
2021/05/06 08:24:36;;;;;;;1.17;0.70;;;;;;;13.43;39.85;92634.22;1844936;77;21382;-81
2021/05/06 08:27:06;;;;;;;0.75;0.75;;;;;;;13.40;39.28;92653.59;1836632;77;21175;-81
2021/05/06 08:29:34;;;;;;;1.75;0.80;;;;;;;13.24;39.15;92652.24;1847968;77;21163;-80
2021/05/06 08:32:02;;;;;;;0.82;0.82;;;;;;;13.13;38.89;92644.33;1845398;77;21156;-84
2021/05/06 08:34:33;;;;;;;1.85;0.85;;;;;;;13.10;39.80;92648.67;1838622;77;21673;-82
2021/05/06 08:37:01;;;;;;;1.35;0.65;;;;;;;13.14;41.82;92656.77;1844843;77;21204;-84
2021/05/06 08:39:28;;;;;;;0.98;0.70;;;;;;;13.35;40.04;92658.98;1836357;78;21195;-85
2021/05/06 08:41:56;;;;;;;1.90;0.60;;;;;;;13.59;41.50;92654.03;1844104;77;21160;-83
2021/05/06 08:44:33;;;;;;;1.42;0.70;;;;;;;13.74;38.67;92646.20;1839466;77;21175;-84
2021/05/06 08:47:07;;;;;;;1.02;0.70;;;;;;;13.56;40.08;92649.43;1841625;77;21257;-83
2021/05/06 08:49:39;;;;;;;0.45;0.40;;;;;;;13.18;37.65;92679.88;1827311;77;21325;-86
2021/05/06 08:52:12;;;;;;;1.10;0.93;;;;;;;12.58;37.27;92667.89;1779987;77;21216;-82
2021/05/06 08:54:41;;;;;;;1.22;0.70;;;;;;;12.23;39.48;92664.80;1847413;77;21599;-85
2021/05/06 08:57:11;;;;;;;0.70;0.70;;;;;;;12.26;40.12;92669.41;1842608;77;21156;-83
2021/05/06 08:59:44;;;;;;;1.37;0.75;;;;;;;12.20;40.33;92658.82;1847216;76;21136;-82
2021/05/06 09:02:12;;;;;;;0.70;0.53;;;;;;;11.97;39.41;92656.98;1840758;77;22713;-82
2021/05/06 09:04:40;;;;;;;1.10;1.00;;;;;;;11.86;40.12;92671.42;1840645;77;21132;-83
2021/05/06 09:07:12;;;;;;;1.12;0.80;;;;;;;11.93;40.85;92677.33;1845322;77;21512;-86
2021/05/06 09:09:48;;;;;;;0.82;0.57;;;;;;;11.98;41.48;92682.27;1835653;78;21234;-83
2021/05/06 09:12:17;;;;;;;1.27;0.72;;;;;;;11.99;39.93;92681.08;1845595;77;21619;-83
2021/05/06 09:14:50;;;;;;;1.15;0.60;;;;;;;11.72;39.19;92691.51;1769390;78;21315;-78
2021/05/06 09:17:27;;;;;;;1.05;0.98;;;;;;;11.41;40.69;92705.32;1804451;78;21231;-83
2021/05/06 09:20:08;;;;;;;1.20;1.02;;;;;;;11.10;38.70;92693.84;1836880;77;21749;-81
2021/05/06 09:22:46;;;;;;;0.82;0.80;;;;;;;10.77;39.29;92691.48;1844201;77;21175;-83
2021/05/06 09:25:24;;;;;;;1.00;0.90;;;;;;;10.64;41.49;92700.02;1841843;77;21198;-78
2021/05/06 09:28:12;;;;;;;1.30;0.60;;;;;;;10.75;42.49;92693.06;1815534;77;21353;-84
2021/05/06 09:31:06;;;;;;;0.50;0.50;;;;;;;10.91;43.81;92696.69;1836482;77;21191;-81
2021/05/06 09:33:39;;;;;;;1.10;0.85;;;;;;;10.95;41.58;92696.63;1843088;77;21282;-83
2021/05/06 09:36:17;;;;;;;1.65;0.60;;;;;;;10.84;40.69;92700.12;1810830;77;21194;-83
2021/05/06 09:38:52;;;;;;;1.62;0.80;;;;;;;10.57;39.86;92700.92;1842881;77;21472;-81
2021/05/06 09:41:21;;;;;;;;;;;;;;;10.26;38.88;92688.56;1843106;77;21345;-81
2021/05/06 09:43:49;;;;;;;1.17;0.72;;;;;;;10.04;41.88;92703.00;1840041;77;20281;-83
2021/05/06 09:46:37;;;;;;;0.68;0.62;;;;;;;10.10;42.82;92698.07;1839438;77;21709;-81
2021/05/06 09:49:10;;;;;;;0.98;0.55;;;;;;;10.37;42.50;92713.64;1775573;80;21200;-85
2021/05/06 09:51:51;;;;;;;2.33;0.68;;;;;;;10.61;39.02;92700.28;1836121;78;22154;-77
2021/05/06 09:54:24;;;;;;;1.00;0.75;;;;;;;10.50;38.28;92706.47;1847081;77;21615;-84
2021/05/06 09:57:01;;;;;;;4.05;1.55;;;;;;;10.36;39.94;92717.55;1840004;77;21180;-80
2021/05/06 09:59:36;;;;;;;0.80;0.80;;;;;;;10.29;41.34;92722.48;1841437;77;21108;-78
2021/05/06 10:02:13;;;;;;;0.70;0.68;;;;;;;10.39;42.37;92715.37;1842137;77;21490;-77
2021/05/06 10:04:44;;;;;;;0.88;0.55;;;;;;;10.64;42.40;92703.54;1837703;77;21233;-86
2021/05/06 10:10:02;;;;;;;1.37;1.20;;;;;;;11.23;43.00;92720.44;1799494;79;21184;-78
2021/05/06 10:12:34;;;;;;;1.27;1.15;;;;;;;11.53;43.13;92721.63;1831259;77;21217;-81
2021/05/06 10:15:07;;;;;;;2.65;1.00;;;;;;;11.81;42.06;92725.78;1836133;77;21282;-78
2021/05/06 10:17:36;;;;;;;1.98;1.10;;;;;;;11.96;41.03;92720.05;1841892;77;21606;-75
2021/05/06 10:20:06;;;;;;;1.25;0.98;;;;;;;11.95;40.17;92710.34;1832178;77;21351;-81
2021/05/06 10:22:35;;;;;;;1.05;0.78;;;;;;;11.86;40.43;92707.60;1779753;78;21232;-84
2021/05/06 10:25:07;;;;;;;1.25;1.02;;;;;;;11.86;41.53;92715.77;1838283;78;21276;-78
2021/05/06 10:27:35;;;;;;;2.85;0.98;;;;;;;11.89;40.19;92713.58;1845397;77;21602;-85
2021/05/06 10:30:06;;;;;;;0.68;0.40;;;;;;;11.93;40.74;92726.36;1840834;77;21140;-80
2021/05/06 10:32:35;;;;;;;1.77;0.70;;;;;;;11.85;39.01;92721.05;1840857;77;21214;-81
2021/05/06 10:35:17;;;;;;;1.77;0.88;;;;;;;11.72;36.38;92720.70;1844870;77;21183;-81
2021/05/06 10:37:53;;;;;;;2.12;0.70;;;;;;;11.45;36.21;92709.34;1834231;77;21184;-81
2021/05/06 10:40:25;;;;;;;0.68;0.68;;;;;;;11.28;39.45;92713.91;1845575;77;21170;-79
2021/05/06 10:42:55;;;;;;;0.78;0.72;;;;;;;11.29;38.92;92705.17;1838570;77;21710;-82
2021/05/06 10:45:30;;;;;;;3.95;0.90;;;;;;;11.31;40.20;92713.08;1845274;77;21293;-77
2021/05/06 10:47:59;;;;;;;1.77;0.90;;;;;;;11.39;41.04;92702.23;1845354;77;21429;-81
2021/05/06 10:50:42;;;;;;;1.25;1.00;;;;;;;11.45;41.00;92702.53;1843880;77;21206;-80
2021/05/06 10:53:10;;;;;;;2.50;1.00;;;;;;;11.36;41.59;92709.14;1838975;78;21187;-80
2021/05/06 10:55:40;;;;;;;1.35;1.00;;;;;;;11.27;42.13;92715.70;1839470;78;21144;-80
2021/05/06 10:58:32;;;;;;;0.78;0.70;;;;;;;11.10;41.40;92708.80;1838325;78;21343;-84
2021/05/06 11:01:09;;;;;;;2.45;0.80;;;;;;;11.02;41.02;92715.55;1837519;77;21184;-80
2021/05/06 11:03:39;;;;;;;1.37;1.20;;;;;;;11.02;43.42;92706.59;1760931;79;21216;-81
2021/05/06 11:06:07;;;;;;;1.07;0.95;;;;;;;11.11;43.41;92712.29;1814281;77;21183;-82
2021/05/06 11:08:37;;;;;;;1.37;1.20;;;;;;;11.21;42.82;92703.17;1845447;77;21152;-82
2021/05/06 11:11:12;;;;;;;1.20;0.80;;;;;;;11.28;42.91;92710.42;1814830;77;22263;-79
2021/05/06 11:13:46;;;;;;;1.75;0.80;;;;;;;11.38;42.48;92703.43;1845616;77;21413;-78
2021/05/06 11:16:18;;;;;;;1.32;1.20;;;;;;;11.48;42.15;92707.75;1803677;79;21137;-76
2021/05/06 11:18:49;;;;;;;1.60;1.25;;;;;;;11.45;41.19;92716.74;1782088;78;21204;-79
2021/05/06 11:21:34;;;;;;;1.22;1.07;;;;;;;11.38;41.94;92704.03;1800699;76;21199;-78
2021/05/06 11:24:25;;;;;;;1.17;0.95;;;;;;;11.34;42.15;92707.41;1849878;76;21361;-82
2021/05/06 11:29:43;;;;;;;1.27;0.60;;;;;;;11.52;42.04;92711.17;1856891;76;21153;-81
2021/05/06 11:32:32;;;;;;;1.00;0.70;;;;;;;11.67;42.78;92715.16;1812818;76;21191;-83
2021/05/06 11:35:02;;;;;;;2.05;0.80;;;;;;;11.74;39.45;92706.85;1864520;76;21183;-82
2021/05/06 11:37:30;;;;;;;2.45;1.00;;;;;;;11.77;40.59;92714.76;1806249;79;21178;-84
2021/05/06 11:40:04;;;;;;;1.35;0.70;;;;;;;11.86;39.77;92689.13;1799047;79;21155;-80
2021/05/06 11:42:37;;;;;;;1.07;0.90;;;;;;;11.86;39.26;92691.26;1847336;75;21127;-76
2021/05/06 11:45:20;;;;;;;1.22;1.10;;;;;;;11.91;39.94;92689.98;1855106;76;21144;-77
2021/05/06 11:47:47;;;;;;;1.72;1.15;;;;;;;12.01;37.21;92673.26;1845716;76;21181;-85
2021/05/06 11:50:21;;;;;;;1.47;0.90;;;;;;;11.99;38.63;92702.88;1864992;76;21325;-86
2021/05/06 11:52:49;;;;;;;0.85;0.75;;;;;;;11.84;37.84;92702.39;1832532;78;21144;-81
2021/05/06 11:55:32;;;;;;;1.62;1.37;;;;;;;11.63;38.12;92713.86;1866474;76;21131;-81
2021/05/06 11:58:01;;;;;;;2.05;0.75;;;;;;;11.50;37.96;92710.80;1838342;76;21490;-79
2021/05/06 12:00:29;;;;;;;1.55;1.10;;;;;;;11.43;38.98;92698.09;1853143;76;21209;-82
2021/05/06 12:03:00;;;;;;;1.07;0.93;;;;;;;11.40;38.11;92706.52;1854259;76;21524;-81
2021/05/06 12:05:59;;;;;;;1.40;1.30;;;;;;;11.33;39.55;92708.00;1827469;78;21339;-79
2021/05/06 12:08:44;;;;;;;7.17;2.20;;;;;;;11.29;38.60;92694.29;1798739;79;21778;-79
2021/05/06 12:11:13;;;;;;;4.37;1.12;;;;;;;11.22;39.03;92684.89;1807161;76;21093;-80
2021/05/06 12:13:43;;;;;;;1.72;1.30;;;;;;;11.12;38.69;92703.70;1872776;76;21138;-76
2021/05/06 12:16:23;;;;;;;1.32;1.15;;;;;;;11.07;39.52;92697.98;1807085;76;21349;-79
2021/05/06 12:19:05;;;;;;;1.60;1.12;;;;;;;11.02;40.52;92693.00;1799927;79;21183;-85
2021/05/06 12:21:59;;;;;;;0.90;0.90;;;;;;;10.91;38.98;92717.09;1838075;75;21174;-74
2021/05/06 12:24:38;;;;;;;1.85;0.98;;;;;;;10.79;39.21;92701.93;1849232;76;21128;-81
2021/05/06 12:27:28;;;;;;;1.00;1.00;;;;;;;10.71;39.98;92710.80;1790281;79;21440;-77
2021/05/06 12:30:02;;;;;;;2.85;1.20;;;;;;;10.72;40.38;92713.71;1798818;79;21323;-81
2021/05/06 12:32:37;;;;;;;1.37;0.93;;;;;;;10.73;40.92;92714.47;1799370;78;21199;-78
2021/05/06 12:35:06;;;;;;;4.58;1.30;;;;;;;10.76;39.33;92707.63;1804861;79;21163;-84
2021/05/06 12:37:37;;;;;;;1.80;0.95;;;;;;;10.73;40.57;92709.80;1807672;78;21698;-78
2021/05/06 12:40:15;;;;;;;2.10;1.00;;;;;;;10.66;40.76;92718.06;1860034;75;21118;-81
2021/05/06 12:42:45;;;;;;;1.30;1.17;;;;;;;10.60;40.28;92723.19;1849062;76;21809;-85
2021/05/06 12:52:40;;;;;;;1.10;0.88;;;;;;;10.27;40.48;92718.62;1833926;78;21021;-75
2021/05/06 12:55:17;;;;;;;1.50;1.10;;;;;;;10.17;42.27;92711.56;1857074;76;21150;-78
2021/05/06 12:57:46;;;;;;;2.58;0.95;;;;;;;10.20;42.70;92703.19;1808808;79;21353;-80
2021/05/06 13:00:23;;;;;;;6.83;1.65;;;;;;;10.25;43.63;92701.39;1855817;76;21201;-76
2021/05/06 13:03:05;;;;;;;0.72;0.72;;;;;;;10.29;42.50;92702.11;1847741;76;21180;-75
2021/05/06 13:05:49;;;;;;;1.50;1.25;;;;;;;10.28;42.31;92701.16;1824074;78;21219;-75
2021/05/06 13:12:11;;;;;;;1.82;0.93;;;;;;;10.14;44.60;92704.22;1805652;78;21191;-78
2021/05/06 13:14:45;;;;;;;1.82;1.15;;;;;;;10.01;45.14;92709.27;1840710;75;21185;-77
2021/05/06 13:17:35;;;;;;;1.60;1.33;;;;;;;9.92;45.55;92700.25;1864032;76;22081;-79
2021/05/06 13:20:25;;;;;;;2.10;1.35;;;;;;;9.93;46.36;92704.52;1844034;75;21173;-79
2021/05/06 13:23:12;;;;;;;2.00;1.20;;;;;;;10.13;47.34;92706.77;1869137;76;21168;-78
2021/05/06 13:25:57;;;;;;;1.98;1.00;;;;;;;10.39;45.67;92696.34;1834819;77;21246;-80
2021/05/06 13:28:34;;;;;;;3.25;1.12;;;;;;;10.54;45.61;92682.72;1845870;77;21147;-78
2021/05/06 13:31:25;;;;;;;1.87;1.15;;;;;;;10.63;42.89;92693.06;1768034;80;21220;-77
2021/05/06 13:34:18;;;;;;;3.58;1.00;;;;;;;10.60;43.38;92700.67;1808767;78;21136;-77
2021/05/06 13:36:50;;;;;;;3.45;1.40;;;;;;;10.58;44.63;92703.81;1844776;77;21135;-76
2021/05/06 13:39:18;;;;;;;15.72;2.17;;;;;;;10.62;45.00;92699.69;1837245;77;21772;-77
2021/05/06 13:41:49;;;;;;;4.97;2.42;;;;;;;10.57;42.67;92700.13;1788176;78;21239;-81
2021/05/06 13:44:18;;;;;;;4.25;2.50;;;;;;;10.52;42.00;92697.30;1801477;77;21686;-80
2021/05/06 13:46:54;;;;;;;1.95;1.40;;;;;;;10.52;43.66;92703.33;1841420;77;22096;-80
2021/05/06 13:49:25;;;;;;;1.77;1.37;;;;;;;10.51;41.80;92702.56;1843935;77;21439;-77
2021/05/06 13:51:55;;;;;;;2.22;1.15;;;;;;;10.47;42.54;92695.65;1788899;77;22691;-80
2021/05/06 13:54:23;;;;;;;2.85;1.72;;;;;;;10.43;42.42;92705.98;1824780;77;21434;-82
2021/05/06 13:56:51;;;;;;;7.03;4.78;;;;;;;10.38;42.79;92702.38;1810855;77;21481;-78
2021/05/06 13:59:18;;;;;;;1.85;1.60;;;;;;;10.33;42.40;92697.38;1800191;77;21203;-82
2021/05/06 14:01:53;;;;;;;2.15;0.82;;;;;;;10.30;42.64;92702.27;1844565;77;21140;-77
2021/05/06 14:04:16;;;;;;;2.27;1.10;;;;;;;10.27;42.12;92728.94;1847466;77;21187;-76
2021/05/06 14:06:43;;;;;;;4.37;1.40;;;;;;;10.24;40.51;92720.80;1846829;77;21183;-77
2021/05/06 14:09:16;;;;;;;0.85;0.80;;;;;;;10.30;42.88;92715.09;1844512;77;21236;-83
2021/05/06 14:11:41;;;;;;;3.20;1.42;;;;;;;10.52;43.24;92704.69;1844120;77;21404;-77
2021/05/06 14:14:11;;;;;;;9.95;4.28;;;;;;;10.82;43.02;92695.08;1808120;78;21563;-79
2021/05/06 14:16:39;;;;;;;1.92;1.37;;;;;;;11.15;40.01;92696.07;1838334;77;22561;-81
2021/05/06 14:19:08;;;;;;;4.58;1.20;;;;;;;11.45;40.73;92682.72;1846073;77;21261;-79
2021/05/06 14:21:36;;;;;;;2.00;1.37;;;;;;;11.64;39.09;92680.59;1766936;78;21129;-83
2021/05/06 14:24:05;;;;;;;0.93;0.90;;;;;;;11.73;39.57;92687.59;1815350;77;21167;-78
2021/05/06 14:26:33;;;;;;;3.30;1.02;;;;;;;11.76;38.98;92696.89;1805731;77;21187;-80
2021/05/06 14:29:00;;;;;;;1.40;0.93;;;;;;;11.70;38.74;92693.90;1779416;79;21696;-78
2021/05/06 14:31:28;;;;;;;3.05;0.93;;;;;;;11.62;38.95;92700.65;1799025;79;21650;-78
2021/05/06 14:33:55;;;;;;;1.47;1.00;;;;;;;11.51;39.04;92695.44;1817300;78;21167;-80
2021/05/06 14:36:23;;;;;;;4.75;3.92;;;;;;;11.38;38.16;92706.16;1817592;78;21187;-78
2021/05/06 14:38:51;;;;;;;6.75;4.45;;;;;;;11.22;36.96;92691.70;1806720;78;21203;-80
2021/05/06 14:41:18;;;;;;;2.70;2.22;;;;;;;11.06;38.15;92695.86;1792771;79;22662;-82
2021/05/06 14:43:47;;;;;;;1.17;0.95;;;;;;;10.94;38.38;92704.02;1796776;79;21642;-83
2021/05/06 14:46:14;;;;;;;1.05;0.95;;;;;;;10.82;37.95;92705.19;1796987;79;21140;-82
2021/05/06 14:48:41;;;;;;;1.75;0.60;;;;;;;10.69;36.77;92711.22;1777216;79;21509;-80
2021/05/06 14:51:10;;;;;;;1.45;0.70;;;;;;;10.53;35.17;92726.04;1808426;77;21674;-78
2021/05/06 14:53:37;;;;;;;2.58;0.62;;;;;;;10.33;36.81;92712.92;1848453;77;22484;-79
2021/05/06 14:56:07;;;;;;;1.90;0.93;;;;;;;10.25;38.47;92710.90;1848222;77;21147;-80
2021/05/06 14:58:35;;;;;;;2.37;0.95;;;;;;;10.19;38.56;92713.29;1851207;77;21372;-77
2021/05/06 15:01:04;;;;;;;4.20;0.98;;;;;;;10.19;37.50;92679.89;1852458;77;21143;-76
2021/05/06 15:03:32;;;;;;;2.67;1.22;;;;;;;10.18;38.87;92685.16;1818908;77;21430;-77
2021/05/06 15:05:59;;;;;;;0.80;0.80;;;;;;;10.14;37.50;92672.98;1799006;78;21385;-80
2021/05/06 15:08:29;;;;;;;1.55;0.80;;;;;;;10.16;39.03;92690.24;1796608;78;21163;-79
2021/05/06 15:10:57;;;;;;;0.95;0.90;;;;;;;10.28;37.87;92682.15;1806033;79;21144;-79
2021/05/06 15:13:25;;;;;;;2.72;1.55;;;;;;;10.40;38.24;92686.41;1798519;79;21163;-78
2021/05/06 15:15:52;;;;;;;1.65;0.80;;;;;;;10.52;39.10;92689.14;1801976;79;21199;-77
2021/05/06 15:18:19;;;;;;;1.75;0.98;;;;;;;10.57;36.59;92666.95;1772393;79;21343;-80
2021/05/06 15:20:47;;;;;;;4.97;1.55;;;;;;;10.53;37.05;92678.47;1745676;81;21994;-81
2021/05/06 15:23:14;;;;;;;3.17;2.20;;;;;;;10.48;37.72;92670.77;1741155;79;21188;-78